Time;durP1;ratioP1;P1;durP2;ratioP2;P2;SDS_P1;SDS_P2;PMS_P1;PMS_P2;Temp;Humidity;BMP_temperature;BMP_pressure;BME280_temperature;BME280_humidity;BME280_pressure;Samples;Min_cycle;Max_cycle;Signal;HPM_P1;HPM_P2
2023/01/14 00:01:43;;;;;;;7.67;1.93;;;24.80;79.00;;;;;;5052165;28;20233;-73
2023/01/14 00:04:11;;;;;;;5.93;1.67;;;24.30;80.10;;;;;;5052782;28;20191;-72
2023/01/14 00:06:38;;;;;;;13.33;2.33;;;24.00;80.00;;;;;;5050592;28;20191;-73
2023/01/14 00:09:08;;;;;;;7.20;2.20;;;23.60;82.60;;;;;;5051185;28;20180;-71
2023/01/14 00:11:50;;;;;;;11.90;3.70;;;23.30;83.80;;;;;;5050737;28;20369;-72
2023/01/14 00:14:21;;;;;;;9.70;4.13;;;23.60;84.20;;;;;;5050369;28;20650;-74
2023/01/14 00:16:50;;;;;;;9.27;4.30;;;23.80;84.50;;;;;;5052768;28;20231;-73
2023/01/14 00:19:19;;;;;;;9.33;2.30;;;23.80;83.20;;;;;;5050592;28;20184;-71
2023/01/14 00:21:46;;;;;;;8.27;2.07;;;23.70;82.20;;;;;;5049400;28;20203;-74
2023/01/14 00:24:15;;;;;;;5.27;1.93;;;23.50;82.30;;;;;;5047716;28;20263;-75
2023/01/14 00:26:43;;;;;;;7.53;1.80;;;23.50;82.80;;;;;;5051286;28;20504;-76
2023/01/14 00:29:18;;;;;;;9.83;1.80;;;23.30;80.70;;;;;;5049998;28;20187;-73
2023/01/14 00:31:45;;;;;;;9.63;2.30;;;23.50;82.00;;;;;;5052620;28;20286;-77
2023/01/14 00:34:14;;;;;;;10.67;1.87;;;23.70;81.40;;;;;;5051995;28;20257;-73
2023/01/14 00:36:46;;;;;;;13.87;2.17;;;24.00;79.50;;;;;;5050807;28;20223;-74
2023/01/14 00:39:13;;;;;;;5.73;1.40;;;24.10;77.50;;;;;;5048533;28;20207;-78
2023/01/14 00:41:41;;;;;;;6.90;1.47;;;24.00;75.10;;;;;;5050035;28;20303;-74
2023/01/14 00:44:09;;;;;;;5.73;1.53;;;24.40;76.20;;;;;;5050071;28;20183;-72
2023/01/14 00:46:38;;;;;;;13.10;3.73;;;24.50;73.30;;;;;;5051109;28;20188;-74
2023/01/14 00:49:07;;;;;;;9.47;2.17;;;25.00;73.00;;;;;;5049686;28;20191;-75
2023/01/14 00:51:35;;;;;;;8.13;1.70;;;25.20;71.00;;;;;;5043100;28;20219;-73
2023/01/14 00:54:03;;;;;;;5.83;2.10;;;25.50;70.10;;;;;;5048942;28;20648;-76
2023/01/14 00:56:31;;;;;;;6.93;1.83;;;25.60;70.00;;;;;;5048345;28;20258;-71
2023/01/14 00:58:58;;;;;;;6.03;1.47;;;25.80;69.50;;;;;;5049390;28;20179;-74
2023/01/14 01:01:26;;;;;;;6.83;1.33;;;25.70;67.60;;;;;;5047937;28;20326;-74
2023/01/14 01:03:55;;;;;;;4.13;1.27;;;25.90;66.50;;;;;;5049684;28;20521;-74
2023/01/14 01:06:25;;;;;;;6.27;1.27;;;25.80;65.90;;;;;;5050883;28;20206;-76
2023/01/14 01:08:58;;;;;;;6.43;1.20;;;25.50;67.40;;;;;;5051410;28;20533;-72
2023/01/14 01:11:26;;;;;;;6.70;1.37;;;25.30;68.30;;;;;;5049735;28;20267;-75
2023/01/14 01:13:56;;;;;;;6.87;1.10;;;25.40;69.00;;;;;;5051568;28;20179;-72
2023/01/14 01:16:26;;;;;;;3.90;1.00;;;25.40;68.60;;;;;;5066190;28;20233;-71
2023/01/14 01:18:56;;;;;;;4.77;0.93;;;25.30;67.20;;;;;;5054190;28;20172;-74
2023/01/14 01:21:25;;;;;;;4.27;1.30;;;25.20;67.50;;;;;;5055220;28;20176;-73
2023/01/14 01:23:53;;;;;;;1.97;0.80;;;25.30;68.10;;;;;;5055667;28;20176;-74
2023/01/14 01:26:24;;;;;;;1.90;0.90;;;25.50;66.90;;;;;;5054737;28;20180;-73
2023/01/14 01:28:54;;;;;;;4.03;1.20;;;25.70;66.90;;;;;;5054883;28;20548;-75
2023/01/14 01:31:24;;;;;;;2.07;0.80;;;25.90;65.90;;;;;;5054908;28;20172;-74
2023/01/14 01:33:51;;;;;;;5.63;5.03;;;26.20;64.60;;;;;;5051963;28;20189;-73
2023/01/14 01:36:21;;;;;;;4.50;0.90;;;26.30;62.50;;;;;;5052983;28;20577;-72
2023/01/14 01:38:49;;;;;;;4.20;1.20;;;26.50;62.30;;;;;;5054920;28;20172;-75
2023/01/14 01:41:25;;;;;;;2.93;0.90;;;26.90;59.00;;;;;;5054133;28;20298;-74
2023/01/14 01:44:14;;;;;;;2.87;0.80;;;26.70;60.60;;;;;;5053436;28;20175;-71
2023/01/14 01:46:42;;;;;;;3.23;1.17;;;26.80;60.90;;;;;;5054104;28;20182;-73
2023/01/14 01:49:09;;;;;;;7.30;1.47;;;26.80;60.60;;;;;;5054369;28;20541;-73
2023/01/14 01:52:03;;;;;;;6.57;1.50;;;26.70;61.60;;;;;;5053657;28;20591;-76
2023/01/14 01:54:40;;;;;;;5.97;1.10;;;26.70;63.30;;;;;;5054670;28;20212;-75
2023/01/14 01:57:13;;;;;;;6.00;1.10;;;27.00;62.10;;;;;;5045554;28;20310;-73
2023/01/14 01:59:45;;;;;;;4.87;1.40;;;26.90;62.10;;;;;;5069670;28;20552;-73
2023/01/14 02:02:12;;;;;;;6.67;1.47;;;26.80;61.70;;;;;;5054682;28;20530;-72
2023/01/14 02:04:40;;;;;;;10.63;2.47;;;26.30;64.00;;;;;;5054257;28;20599;-72
2023/01/14 02:07:23;;;;;;;7.37;2.70;;;25.80;66.30;;;;;;5054735;28;20700;-74
2023/01/14 02:10:05;;;;;;;10.10;1.77;;;25.50;67.90;;;;;;5054583;28;20221;-72
2023/01/14 02:12:53;;;;;;;9.23;1.30;;;25.50;68.70;;;;;;5054181;28;20195;-73
2023/01/14 02:15:38;;;;;;;4.63;1.17;;;25.90;66.10;;;;;;5053420;28;20211;-72
2023/01/14 02:18:34;;;;;;;5.67;1.07;;;26.30;62.80;;;;;;5053909;28;20282;-72
2023/01/14 02:21:01;;;;;;;7.20;1.70;;;26.60;62.30;;;;;;5054054;28;20192;-72
2023/01/14 02:23:47;;;;;;;5.03;1.00;;;26.90;61.60;;;;;;5049895;28;20214;-73
2023/01/14 02:26:37;;;;;;;4.63;1.27;;;26.80;62.60;;;;;;5053903;28;20267;-73
2023/01/14 02:29:22;;;;;;;9.50;1.57;;;26.70;63.40;;;;;;5053901;28;20192;-74
2023/01/14 02:32:06;;;;;;;5.23;1.00;;;26.70;62.40;;;;;;5053971;28;20297;-73
2023/01/14 02:35:15;;;;;;;7.13;1.47;;;27.00;60.10;;;;;;5051979;28;20179;-72
2023/01/14 02:38:07;;;;;;;6.17;1.23;;;27.20;58.60;;;;;;5050671;28;20203;-73
2023/01/14 02:40:58;;;;;;;3.83;1.33;;;27.30;58.90;;;;;;5046963;28;20236;-73
2023/01/14 02:46:50;;;;;;;11.63;3.60;;;27.30;59.70;;;;;;5054296;28;20200;-72
2023/01/14 02:49:24;;;;;;;8.53;2.33;;;27.00;59.80;;;;;;5046281;28;20192;-72
2023/01/14 02:51:51;;;;;;;7.77;1.87;;;27.30;60.30;;;;;;5051360;28;20195;-72
2023/01/14 02:54:19;;;;;;;8.27;1.20;;;27.50;60.20;;;;;;5053566;28;20258;-74
2023/01/14 02:56:48;;;;;;;6.27;1.60;;;27.00;60.80;;;;;;5051845;28;20215;-72
2023/01/14 02:59:37;;;;;;;3.03;1.00;;;26.70;61.40;;;;;;5053128;28;20214;-72
2023/01/14 03:02:43;;;;;;;5.17;1.17;;;26.60;60.80;;;;;;5051129;28;20242;-71
2023/01/14 03:05:36;;;;;;;6.47;1.20;;;27.20;60.40;;;;;;5052260;28;20544;-72
2023/01/14 03:08:13;;;;;;;8.73;1.40;;;27.40;60.60;;;;;;5051918;28;20646;-73
2023/01/14 03:11:04;;;;;;;6.03;1.30;;;27.90;59.10;;;;;;5049392;28;20234;-73
2023/01/14 03:13:37;;;;;;;6.47;1.37;;;27.60;58.70;;;;;;5049575;28;20657;-72
2023/01/14 03:16:15;;;;;;;7.63;1.20;;;27.20;60.10;;;;;;5052794;28;20259;-72
2023/01/14 03:18:56;;;;;;;9.47;1.50;;;27.50;59.50;;;;;;5053882;28;20176;-74
2023/01/14 03:21:32;;;;;;;10.20;1.40;;;27.90;58.10;;;;;;5052836;28;20183;-73
2023/01/14 03:24:12;;;;;;;10.10;1.57;;;28.00;58.50;;;;;;5052405;28;20179;-73
2023/01/14 03:26:43;;;;;;;8.03;1.53;;;28.30;57.10;;;;;;5067998;28;20294;-73
2023/01/14 03:29:18;;;;;;;4.90;1.30;;;28.30;57.00;;;;;;5054630;28;20187;-74
2023/01/14 03:31:57;;;;;;;4.10;1.00;;;28.40;56.60;;;;;;5055179;28;21038;-72
2023/01/14 03:34:35;;;;;;;5.33;1.33;;;28.20;56.70;;;;;;5056339;28;20583;-76
2023/01/14 03:37:05;;;;;;;7.00;1.30;;;28.60;55.70;;;;;;5052653;28;20750;-73
2023/01/14 03:39:34;;;;;;;4.10;1.13;;;28.50;55.20;;;;;;5057755;28;20184;-73
2023/01/14 03:42:20;;;;;;;7.27;1.20;;;28.20;56.60;;;;;;5057838;28;20711;-73
2023/01/14 03:44:55;;;;;;;6.53;1.57;;;28.10;56.40;;;;;;5058646;28;20266;-71
2023/01/14 03:47:23;;;;;;;7.80;1.60;;;28.50;55.50;;;;;;5050457;28;20179;-72
2023/01/14 03:49:52;;;;;;;8.97;1.73;;;28.20;55.80;;;;;;5058916;28;20310;-73
2023/01/14 03:53:04;;;;;;;6.90;1.50;;;28.30;55.80;;;;;;5059023;28;20211;-75
2023/01/14 03:56:10;;;;;;;5.50;1.40;;;28.30;56.20;;;;;;5050457;28;20543;-72
2023/01/14 03:58:49;;;;;;;7.17;1.23;;;28.30;55.60;;;;;;5053259;28;20186;-73
2023/01/14 04:01:52;;;;;;;6.23;1.37;;;28.30;54.40;;;;;;5052388;28;20278;-73
2023/01/14 04:04:21;;;;;;;5.80;1.23;;;28.10;55.40;;;;;;5017638;28;20222;-72
2023/01/14 04:06:49;;;;;;;7.53;1.50;;;28.30;54.70;;;;;;5053120;28;20173;-70
2023/01/14 04:09:16;;;;;;;3.70;1.10;;;28.30;55.70;;;;;;5052745;28;20191;-75
2023/01/14 04:11:44;;;;;;;7.70;1.57;;;28.30;55.40;;;;;;5052778;28;20176;-72
2023/01/14 04:16:58;;;;;;;6.33;1.57;;;28.20;54.90;;;;;;5054209;28;20226;-71
2023/01/14 04:19:25;;;;;;;5.60;1.00;;;28.30;55.80;;;;;;5052576;28;20184;-70
2023/01/14 04:21:53;;;;;;;5.77;2.07;;;28.00;55.80;;;;;;5052591;28;20595;-71
2023/01/14 04:24:20;;;;;;;8.17;1.20;;;28.20;55.20;;;;;;5052117;28;20259;-73
2023/01/14 04:26:48;;;;;;;5.93;1.10;;;27.90;55.90;;;;;;5052189;28;20199;-73
2023/01/14 04:29:15;;;;;;;3.90;1.33;;;28.10;55.80;;;;;;5046386;28;20207;-73
2023/01/14 04:31:42;;;;;;;5.20;1.33;;;28.20;55.10;;;;;;5050563;28;20286;-72
2023/01/14 04:34:12;;;;;;;7.10;1.23;;;28.20;55.80;;;;;;5051754;28;20267;-72
2023/01/14 04:36:40;;;;;;;7.53;1.50;;;28.00;56.80;;;;;;5045421;28;20215;-74
2023/01/14 04:39:07;;;;;;;4.80;1.30;;;28.40;55.70;;;;;;5050789;28;20272;-71
2023/01/14 04:44:20;;;;;;;6.90;1.10;;;28.50;54.60;;;;;;5050705;28;20318;-73
2023/01/14 04:46:47;;;;;;;4.10;1.10;;;28.40;53.70;;;;;;5049905;28;20186;-74
2023/01/14 04:49:14;;;;;;;4.87;1.00;;;28.40;54.30;;;;;;5049824;28;20191;-72
2023/01/14 04:51:41;;;;;;;10.83;1.40;;;28.20;54.60;;;;;;5049824;28;20297;-73
2023/01/14 04:54:09;;;;;;;3.93;1.00;;;28.10;54.00;;;;;;5050238;28;20195;-73
2023/01/14 04:56:36;;;;;;;4.83;1.40;;;28.40;54.30;;;;;;5050444;28;20239;-72
2023/01/14 04:59:03;;;;;;;4.57;1.30;;;28.50;53.70;;;;;;5051292;28;20234;-73
2023/01/14 05:01:31;;;;;;;6.57;1.40;;;28.80;53.60;;;;;;5051890;28;20226;-72
2023/01/14 05:04:00;;;;;;;6.83;1.63;;;28.50;54.10;;;;;;5051090;28;20184;-72
2023/01/14 05:06:29;;;;;;;11.60;0.97;;;28.40;54.80;;;;;;5050966;28;20638;-70
2023/01/14 05:08:57;;;;;;;3.93;1.23;;;28.70;53.70;;;;;;5050732;28;20193;-73
2023/01/14 05:11:31;;;;;;;7.23;1.27;;;28.30;54.30;;;;;;5051665;28;20282;-72
2023/01/14 05:13:59;;;;;;;3.30;1.00;;;28.70;53.70;;;;;;5051694;28;20175;-72
2023/01/14 05:16:27;;;;;;;5.87;1.00;;;28.80;53.70;;;;;;5052217;28;20226;-76
2023/01/14 05:18:54;;;;;;;4.70;1.13;;;28.70;53.60;;;;;;5051767;28;20259;-72
2023/01/14 05:21:22;;;;;;;4.53;1.03;;;28.50;54.20;;;;;;5051631;28;20199;-73
2023/01/14 05:23:50;;;;;;;3.83;0.90;;;29.00;52.90;;;;;;5051759;28;20251;-73
2023/01/14 05:26:18;;;;;;;7.27;1.00;;;29.10;52.40;;;;;;5051526;28;20271;-72
2023/01/14 05:28:45;;;;;;;10.87;1.40;;;29.00;52.70;;;;;;5051428;28;20175;-71
2023/01/14 05:31:13;;;;;;;5.10;1.30;;;29.20;52.10;;;;;;5051463;28;20190;-73
2023/01/14 05:33:40;;;;;;;8.13;1.53;;;28.90;53.10;;;;;;5051746;28;20194;-72
2023/01/14 05:36:08;;;;;;;5.97;1.13;;;29.40;52.40;;;;;;5048222;28;20269;-73
2023/01/14 05:38:35;;;;;;;9.57;1.50;;;29.20;52.90;;;;;;5050077;28;20591;-73
2023/01/14 05:41:02;;;;;;;9.13;1.37;;;29.30;52.80;;;;;;5050496;28;20184;-71
2023/01/14 05:46:17;;;;;;;6.30;1.23;;;29.00;53.40;;;;;;5049172;28;20199;-72
2023/01/14 05:48:45;;;;;;;9.03;1.60;;;28.30;55.50;;;;;;5050266;28;20603;-72
2023/01/14 05:51:13;;;;;;;6.47;1.37;;;28.80;54.30;;;;;;5050922;28;20227;-74
2023/01/14 05:53:40;;;;;;;6.70;1.37;;;29.40;52.40;;;;;;5045375;28;20172;-73
2023/01/14 05:56:09;;;;;;;3.87;1.03;;;29.30;53.00;;;;;;5050413;28;20298;-74
2023/01/14 05:58:37;;;;;;;3.70;0.90;;;29.10;52.90;;;;;;5049949;28;20184;-71
2023/01/14 06:06:40;;;;;;;7.33;1.27;;;28.60;54.60;;;;;;5055667;28;20236;-73
2023/01/14 06:09:10;;;;;;;10.10;1.50;;;28.40;54.30;;;;;;5054369;28;20279;-72
2023/01/14 06:11:42;;;;;;;6.80;1.20;;;28.70;53.80;;;;;;5055902;28;20184;-72
2023/01/14 06:14:09;;;;;;;4.70;1.20;;;28.50;54.20;;;;;;5055598;28;20184;-73
2023/01/14 06:16:40;;;;;;;4.17;1.13;;;28.50;54.00;;;;;;5055892;28;20242;-70
2023/01/14 06:19:14;;;;;;;3.73;1.03;;;28.60;54.30;;;;;;5054252;28;20210;-69
2023/01/14 06:21:42;;;;;;;6.17;1.23;;;28.40;54.10;;;;;;5052959;28;20190;-73
2023/01/14 06:24:09;;;;;;;5.10;1.30;;;28.80;53.90;;;;;;5055099;28;20184;-72
2023/01/14 06:26:37;;;;;;;3.97;1.00;;;28.30;54.30;;;;;;5053122;28;20634;-72
2023/01/14 06:29:08;;;;;;;3.73;1.10;;;28.60;54.00;;;;;;5053600;28;20215;-74
2023/01/14 06:31:36;;;;;;;5.80;1.30;;;28.80;53.60;;;;;;5056880;28;20207;-73
2023/01/14 06:34:04;;;;;;;8.53;1.47;;;28.70;53.80;;;;;;5052889;28;20248;-72
2023/01/14 06:36:33;;;;;;;2.90;0.82;;;29.20;53.20;;;;;;5054171;28;20218;-73
2023/01/14 06:39:01;;;;;;;6.40;1.27;;;29.20;53.20;;;;;;5054069;28;20699;-72
2023/01/14 06:41:30;;;;;;;4.20;1.07;;;29.80;51.90;;;;;;5052434;28;20192;-73
2023/01/14 06:43:58;;;;;;;3.03;0.83;;;29.00;52.40;;;;;;5064288;28;20279;-71
2023/01/14 06:46:25;;;;;;;5.03;1.10;;;28.60;53.30;;;;;;5052013;28;20242;-70
2023/01/14 06:48:52;;;;;;;9.53;1.37;;;28.80;52.80;;;;;;5051648;28;20184;-72
2023/01/14 06:51:20;;;;;;;5.87;1.23;;;28.40;54.00;;;;;;5050257;28;20632;-74
2023/01/14 06:53:48;;;;;;;4.90;0.97;;;28.60;53.00;;;;;;5051171;28;20188;-74
2023/01/14 06:56:17;;;;;;;7.27;1.37;;;28.20;54.00;;;;;;5053749;28;20225;-72
2023/01/14 06:58:48;;;;;;;6.93;1.33;;;28.80;53.70;;;;;;5051413;28;20655;-73
2023/01/14 07:01:16;;;;;;;7.63;1.40;;;28.50;53.60;;;;;;5050836;28;20292;-71
2023/01/14 07:03:43;;;;;;;6.17;1.40;;;28.30;54.10;;;;;;5053589;28;20270;-74
2023/01/14 07:06:10;;;;;;;4.60;1.10;;;28.30;53.80;;;;;;5056678;28;20183;-73
2023/01/14 07:08:38;;;;;;;3.30;1.17;;;28.30;53.60;;;;;;5049148;28;20232;-76
2023/01/14 07:11:05;;;;;;;6.40;1.40;;;28.50;53.80;;;;;;5058745;28;20839;-74
2023/01/14 07:13:33;;;;;;;3.10;0.90;;;28.80;53.40;;;;;;5061187;28;20547;-72
2023/01/14 07:16:01;;;;;;;5.03;1.10;;;29.10;52.50;;;;;;5063855;28;20242;-73
2023/01/14 07:18:28;;;;;;;6.20;1.20;;;28.60;53.00;;;;;;5054264;28;20238;-73
2023/01/14 07:20:57;;;;;;;6.93;1.23;;;27.90;54.60;;;;;;5052952;28;20221;-71
2023/01/14 07:23:25;;;;;;;6.73;1.13;;;28.00;53.90;;;;;;5052078;28;20187;-71
2023/01/14 07:25:55;;;;;;;4.30;1.13;;;27.60;55.10;;;;;;5053191;28;20187;-73
2023/01/14 07:28:24;;;;;;;3.47;0.97;;;27.70;55.20;;;;;;5048458;28;20183;-71
2023/01/14 07:30:52;;;;;;;6.93;1.40;;;27.50;55.30;;;;;;5056156;28;20184;-71
2023/01/14 07:33:21;;;;;;;6.60;1.43;;;26.70;57.70;;;;;;5052858;28;20732;-71
2023/01/14 07:35:52;;;;;;;7.03;1.40;;;26.20;59.20;;;;;;5053618;28;20245;-72
2023/01/14 07:38:20;;;;;;;3.40;1.03;;;26.10;60.00;;;;;;5050851;28;20176;-75
2023/01/14 07:40:47;;;;;;;10.13;1.50;;;25.90;60.70;;;;;;5053588;28;20168;-72
2023/01/14 07:43:15;;;;;;;3.20;1.23;;;25.70;61.70;;;;;;5053798;28;20196;-73
2023/01/14 07:45:42;;;;;;;3.87;1.30;;;25.70;61.70;;;;;;5053562;28;20549;-73
2023/01/14 07:48:10;;;;;;;4.07;1.00;;;25.60;62.40;;;;;;5054374;28;20176;-71
2023/01/14 07:50:37;;;;;;;5.80;1.00;;;25.60;62.60;;;;;;5054268;28;20385;-72
2023/01/14 07:53:05;;;;;;;7.30;1.53;;;25.30;63.60;;;;;;5052242;28;20585;-73
2023/01/14 07:55:33;;;;;;;5.83;1.50;;;25.30;64.10;;;;;;5049116;28;20192;-71
2023/01/14 07:58:01;;;;;;;6.00;1.40;;;25.20;64.00;;;;;;5051330;28;20191;-73
2023/01/14 08:00:28;;;;;;;5.57;1.30;;;25.00;63.90;;;;;;5066718;28;20194;-73
2023/01/14 08:02:56;;;;;;;6.37;2.43;;;25.10;64.00;;;;;;5052269;28;20192;-73
2023/01/14 08:05:23;;;;;;;6.57;2.73;;;24.90;64.20;;;;;;5052011;28;20188;-74
2023/01/14 08:07:51;;;;;;;7.97;2.70;;;24.90;64.90;;;;;;5044525;28;20254;-70
2023/01/14 08:10:18;;;;;;;4.53;1.40;;;24.80;64.40;;;;;;5052314;28;20192;-72
2023/01/14 08:12:45;;;;;;;7.30;1.30;;;24.70;64.90;;;;;;5052246;28;20254;-73
2023/01/14 08:15:13;;;;;;;3.47;1.23;;;24.60;65.10;;;;;;5051862;28;20188;-72
2023/01/14 08:17:41;;;;;;;4.13;1.20;;;24.40;65.40;;;;;;5052321;28;20191;-72
2023/01/14 08:20:10;;;;;;;7.90;1.43;;;24.30;65.80;;;;;;5052205;28;20175;-75
2023/01/14 08:22:38;;;;;;;7.57;1.40;;;24.30;65.90;;;;;;5052401;28;20555;-70
2023/01/14 08:25:06;;;;;;;4.50;2.17;;;24.20;66.60;;;;;;5052197;28;20176;-73
2023/01/14 08:27:34;;;;;;;3.47;1.10;;;24.10;66.60;;;;;;5051597;28;20174;-71
2023/01/14 08:30:01;;;;;;;5.43;1.20;;;24.10;66.50;;;;;;5051902;28;20199;-73
2023/01/14 08:32:29;;;;;;;5.80;1.43;;;24.00;67.00;;;;;;5051970;28;20241;-74
2023/01/14 08:34:56;;;;;;;5.33;1.40;;;24.20;67.10;;;;;;5051218;28;20593;-72
2023/01/14 08:37:23;;;;;;;5.87;1.23;;;24.00;67.50;;;;;;5051829;28;20229;-73
2023/01/14 08:39:51;;;;;;;4.67;1.20;;;24.00;67.90;;;;;;5052244;28;20195;-72
2023/01/14 08:42:18;;;;;;;8.97;1.93;;;24.00;68.40;;;;;;5051480;28;20653;-71
2023/01/14 08:44:45;;;;;;;12.53;3.37;;;23.80;68.30;;;;;;5052140;28;20179;-72
2023/01/14 08:47:13;;;;;;;9.60;2.60;;;23.80;68.60;;;;;;5051515;28;20626;-72
2023/01/14 08:49:40;;;;;;;13.60;2.63;;;23.70;68.70;;;;;;5052158;28;20180;-73
2023/01/14 08:52:07;;;;;;;7.10;1.90;;;23.70;68.90;;;;;;5051966;28;20200;-73
2023/01/14 08:54:35;;;;;;;7.33;1.97;;;23.60;69.30;;;;;;5052316;28;20206;-74
2023/01/14 08:57:02;;;;;;;9.13;2.20;;;23.60;69.50;;;;;;5052026;28;20215;-74
2023/01/14 08:59:30;;;;;;;6.30;1.77;;;23.60;69.40;;;;;;5051785;28;20220;-72
2023/01/14 09:01:57;;;;;;;7.87;1.77;;;23.60;69.50;;;;;;5051904;28;20261;-73
2023/01/14 09:04:25;;;;;;;10.47;2.40;;;23.50;69.30;;;;;;5051721;28;20184;-71
2023/01/14 09:18:04;;;;;;;7.07;1.80;;;23.30;71.20;;;;;;5051675;28;20241;-73
2023/01/14 09:20:35;;;;;;;5.73;1.90;;;23.30;71.10;;;;;;5051319;28;20722;-74
2023/01/14 09:23:04;;;;;;;5.43;1.40;;;23.30;71.10;;;;;;5043785;28;20180;-73
2023/01/14 09:25:31;;;;;;;6.33;1.57;;;23.30;71.00;;;;;;5051511;28;20258;-73
2023/01/14 09:27:59;;;;;;;7.90;1.40;;;23.30;71.20;;;;;;5051199;28;20192;-70
2023/01/14 09:30:26;;;;;;;6.93;1.70;;;23.30;71.40;;;;;;5051651;28;20627;-72
2023/01/14 09:32:53;;;;;;;6.83;2.10;;;23.30;71.60;;;;;;5051476;28;20207;-70
2023/01/14 09:35:21;;;;;;;4.80;1.50;;;23.20;72.10;;;;;;5051420;28;20662;-72
2023/01/14 09:37:48;;;;;;;7.37;1.50;;;23.20;72.10;;;;;;5048851;28;20246;-72
2023/01/14 09:40:16;;;;;;;4.77;1.37;;;23.30;72.70;;;;;;5052567;28;20191;-71
2023/01/14 09:42:48;;;;;;;4.93;1.43;;;23.20;73.30;;;;;;5054642;28;20184;-72
2023/01/14 09:45:36;;;;;;;5.83;1.60;;;23.20;73.50;;;;;;5054813;28;20203;-73
2023/01/14 09:48:15;;;;;;;8.83;1.63;;;23.10;74.00;;;;;;5054160;28;20179;-72
2023/01/14 09:50:55;;;;;;;8.53;1.70;;;23.10;74.00;;;;;;5055038;28;20212;-72
2023/01/14 09:53:58;;;;;;;8.83;1.73;;;23.10;74.40;;;;;;5055226;28;20171;-70
2023/01/14 09:56:34;;;;;;;3.77;1.40;;;23.10;74.60;;;;;;5055263;28;20219;-71
2023/01/14 09:59:30;;;;;;;8.27;1.70;;;23.10;74.70;;;;;;5054857;28;20180;-71
2023/01/14 10:02:01;;;;;;;8.30;2.77;;;23.10;74.90;;;;;;5054966;28;20184;-71
2023/01/14 10:04:59;;;;;;;11.53;3.20;;;23.00;75.10;;;;;;5055229;28;20639;-70
2023/01/14 10:07:27;;;;;;;8.70;1.70;;;23.10;75.10;;;;;;5054752;28;20519;-72
2023/01/14 10:10:00;;;;;;;7.53;1.67;;;23.00;74.90;;;;;;5054191;28;20270;-72
2023/01/14 10:12:33;;;;;;;10.33;1.50;;;23.00;74.80;;;;;;5054972;28;20270;-71
2023/01/14 10:15:38;;;;;;;10.50;2.10;;;23.00;75.00;;;;;;5054854;28;20188;-71
2023/01/14 10:18:19;;;;;;;8.73;1.73;;;23.00;75.20;;;;;;5054881;28;20215;-71
2023/01/14 10:20:55;;;;;;;6.10;1.70;;;22.90;75.30;;;;;;5054701;28;20191;-71
2023/01/14 10:23:39;;;;;;;5.17;1.37;;;23.00;75.40;;;;;;5055237;28;20180;-71
2023/01/14 10:26:33;;;;;;;8.27;2.00;;;23.00;75.20;;;;;;5052057;28;20194;-71
2023/01/14 10:29:09;;;;;;;7.13;1.50;;;22.90;75.40;;;;;;5051912;28;20202;-73
2023/01/14 10:31:38;;;;;;;7.00;1.50;;;23.00;75.40;;;;;;5052874;28;20191;-72
2023/01/14 10:34:09;;;;;;;7.13;1.57;;;22.90;75.50;;;;;;5054401;28;20180;-72
2023/01/14 10:36:37;;;;;;;7.20;1.53;;;22.90;75.70;;;;;;5054758;28;20215;-73
2023/01/14 10:39:07;;;;;;;7.23;1.60;;;22.90;75.70;;;;;;5053992;28;20267;-71
2023/01/14 10:41:50;;;;;;;8.30;1.93;;;23.00;75.90;;;;;;5047917;28;20191;-70
2023/01/14 10:44:34;;;;;;;8.27;1.70;;;22.90;75.80;;;;;;5050501;28;20187;-71
2023/01/14 10:47:15;;;;;;;4.40;1.40;;;22.90;75.70;;;;;;5053221;28;20180;-73
2023/01/14 10:49:55;;;;;;;7.93;1.53;;;22.90;75.70;;;;;;5052804;28;20187;-73
2023/01/14 10:52:32;;;;;;;8.60;1.70;;;22.90;75.90;;;;;;5052425;28;20199;-73
2023/01/14 10:55:13;;;;;;;6.90;1.50;;;22.90;76.10;;;;;;5053507;28;20539;-71
2023/01/14 10:57:59;;;;;;;11.93;2.27;;;22.90;76.00;;;;;;5056297;28;20198;-73
2023/01/14 11:00:32;;;;;;;11.77;1.77;;;22.90;76.20;;;;;;5053371;28;20200;-72
2023/01/14 11:03:00;;;;;;;8.67;1.67;;;22.90;76.40;;;;;;5054079;28;20221;-71
2023/01/14 11:05:41;;;;;;;7.10;1.70;;;22.90;76.50;;;;;;5054188;28;20219;-71
2023/01/14 11:08:31;;;;;;;7.83;1.60;;;22.90;76.40;;;;;;5052300;28;20176;-71
2023/01/14 11:11:19;;;;;;;4.60;1.33;;;22.90;76.20;;;;;;5054679;28;20176;-72
2023/01/14 11:13:50;;;;;;;6.37;2.07;;;22.90;76.30;;;;;;5052656;28;20254;-72
2023/01/14 11:16:36;;;;;;;7.73;1.90;;;22.90;76.30;;;;;;5054270;28;20302;-72
2023/01/14 11:19:19;;;;;;;5.97;1.50;;;22.90;76.30;;;;;;5051226;28;20275;-73
2023/01/14 11:21:50;;;;;;;13.70;2.20;;;22.90;76.40;;;;;;5053622;28;20184;-72
2023/01/14 11:24:35;;;;;;;7.00;2.80;;;22.90;76.70;;;;;;5053956;28;20263;-72
2023/01/14 11:27:14;;;;;;;11.67;3.23;;;22.80;76.80;;;;;;5056683;28;20202;-72
2023/01/14 11:30:02;;;;;;;7.17;1.70;;;22.80;76.80;;;;;;5055608;28;20600;-71
2023/01/14 11:32:34;;;;;;;12.97;2.00;;;22.80;76.90;;;;;;5055147;28;20175;-71
2023/01/14 11:35:04;;;;;;;5.87;1.50;;;22.80;76.70;;;;;;5056525;28;20596;-71
2023/01/14 11:37:44;;;;;;;5.70;1.83;;;22.80;76.70;;;;;;5057664;28;20269;-72
2023/01/14 11:43:25;;;;;;;7.17;1.67;;;22.80;76.80;;;;;;5045623;28;20234;-73
2023/01/14 11:46:14;;;;;;;12.13;2.20;;;22.80;77.00;;;;;;5053620;28;20230;-74
2023/01/14 11:48:42;;;;;;;6.17;1.67;;;22.80;77.00;;;;;;5055669;28;20201;-72
2023/01/14 11:51:20;;;;;;;11.90;5.43;;;22.80;76.90;;;;;;5054195;28;20691;-72
2023/01/14 11:53:50;;;;;;;9.03;2.80;;;22.80;77.10;;;;;;5055922;28;20233;-72
2023/01/14 11:56:38;;;;;;;5.80;1.57;;;22.80;77.20;;;;;;5055579;28;20222;-73
2023/01/14 11:59:20;;;;;;;8.00;1.40;;;22.80;77.30;;;;;;5054474;28;20548;-72
2023/01/14 12:02:12;;;;;;;7.57;1.83;;;22.80;77.00;;;;;;5054006;28;20291;-73
2023/01/14 12:04:56;;;;;;;10.10;1.90;;;22.80;77.30;;;;;;5055122;28;20192;-72
2023/01/14 12:07:41;;;;;;;8.20;2.03;;;22.70;77.40;;;;;;5060566;28;20267;-71
2023/01/14 12:10:32;;;;;;;8.63;1.60;;;22.70;77.40;;;;;;5061628;28;20175;-72
2023/01/14 12:19:30;;;;;;;13.93;2.00;;;22.80;77.40;;;;;;5052399;28;20700;-73
2023/01/14 12:22:15;;;;;;;8.73;1.90;;;22.70;77.40;;;;;;5054497;28;20306;-72
2023/01/14 12:24:52;;;;;;;13.00;2.23;;;22.80;77.40;;;;;;5055775;28;20254;-73
2023/01/14 12:27:44;;;;;;;8.03;1.83;;;22.80;77.30;;;;;;5054848;28;20190;-73
2023/01/14 12:30:33;;;;;;;16.57;1.77;;;22.70;77.60;;;;;;5049334;28;20179;-71
2023/01/14 12:33:09;;;;;;;7.27;1.67;;;22.70;77.60;;;;;;5046155;28;20226;-72
2023/01/14 12:36:09;;;;;;;14.17;2.03;;;22.60;77.80;;;;;;5051716;28;20183;-72
2023/01/14 12:47:27;;;;;;;9.73;1.80;;;22.60;77.60;;;;;;5050371;28;20187;-73
2023/01/14 12:49:55;;;;;;;10.83;2.07;;;22.60;77.80;;;;;;5049694;28;20287;-71
2023/01/14 12:52:30;;;;;;;5.70;1.50;;;22.60;77.90;;;;;;5051404;28;20191;-72
2023/01/14 12:54:58;;;;;;;9.63;1.80;;;22.50;77.80;;;;;;5050686;28;20218;-72
2023/01/14 12:57:27;;;;;;;6.10;1.83;;;22.50;77.80;;;;;;5050076;28;20241;-72
2023/01/14 13:00:07;;;;;;;10.43;1.97;;;22.50;77.90;;;;;;5050894;28;20185;-72
2023/01/14 13:02:40;;;;;;;8.23;1.97;;;22.40;77.80;;;;;;5050398;28;20250;-71
2023/01/14 13:05:11;;;;;;;5.87;1.60;;;22.30;77.80;;;;;;5049210;28;20180;-74
2023/01/14 13:08:00;;;;;;;9.40;1.50;;;22.40;77.70;;;;;;5049492;28;20187;-73
2023/01/14 13:10:39;;;;;;;7.83;1.93;;;22.30;77.50;;;;;;5045480;28;20203;-70
2023/01/14 13:13:25;;;;;;;6.40;1.70;;;22.30;77.20;;;;;;5048681;28;20630;-73
2023/01/14 13:16:01;;;;;;;14.03;2.10;;;22.30;77.30;;;;;;5054034;28;20207;-73
2023/01/14 13:18:35;;;;;;;7.23;1.63;;;22.30;77.10;;;;;;5054707;28;20176;-73
2023/01/14 13:21:07;;;;;;;7.47;1.53;;;22.30;77.20;;;;;;5054307;28;20203;-73
2023/01/14 13:23:37;;;;;;;8.20;2.27;;;22.30;77.00;;;;;;5049493;28;20184;-73
2023/01/14 13:26:19;;;;;;;11.10;1.77;;;22.30;77.20;;;;;;5054389;28;20222;-73
2023/01/14 13:29:16;;;;;;;5.20;1.43;;;22.30;77.30;;;;;;5054336;28;20317;-72
2023/01/14 13:31:45;;;;;;;4.83;1.63;;;22.20;77.10;;;;;;5058992;28;20223;-72
2023/01/14 13:34:26;;;;;;;8.70;2.30;;;22.20;77.20;;;;;;5061273;28;20184;-72
2023/01/14 13:37:05;;;;;;;6.33;1.60;;;22.20;77.20;;;;;;5054474;28;20271;-72
2023/01/14 13:39:33;;;;;;;10.80;1.53;;;22.20;77.30;;;;;;5054919;28;20265;-73
2023/01/14 13:42:13;;;;;;;8.23;1.40;;;22.10;77.60;;;;;;5055429;28;20234;-72
2023/01/14 13:44:48;;;;;;;10.73;1.83;;;22.10;77.60;;;;;;5054374;28;20175;-73
2023/01/14 13:47:20;;;;;;;6.47;1.80;;;22.10;77.20;;;;;;5052519;28;20576;-70
2023/01/14 13:49:57;;;;;;;8.47;1.60;;;22.10;77.40;;;;;;5055316;28;20686;-72
2023/01/14 13:52:26;;;;;;;6.80;1.50;;;22.00;77.20;;;;;;5053282;28;20188;-72
2023/01/14 13:54:58;;;;;;;8.33;2.03;;;22.10;77.10;;;;;;5055003;28;20180;-71
2023/01/14 13:57:38;;;;;;;4.10;1.40;;;22.00;77.00;;;;;;5054707;28;20226;-71
2023/01/14 14:00:27;;;;;;;7.23;1.70;;;22.00;77.00;;;;;;5050841;28;20191;-71
2023/01/14 14:03:14;;;;;;;10.00;1.60;;;22.00;77.10;;;;;;5054938;28;20524;-72
2023/01/14 14:05:42;;;;;;;8.27;1.80;;;21.90;77.00;;;;;;5054145;28;20191;-71